Back to Top

My Weather Underground Personal Weather Station Historical Data with Graphs...

Delerius Weather Station Historical Data
 
Daily Summary for September 27, 2020 Units:  English    Metric   Both
Daily Weekly Monthly Yearly
  Current: High: Low: Average:
Temperature: 51.1 °F 54.3 °F 49.3 °F 51.4 °F
Dew Point: 47.3 °F 48.6 °F 44.2 °F 46.4 °F
Humidity: 87% 87% 79.1% 83%
Wind Speed: 8.9mph 23mph 6.4mph 15.8mph
Wind Gust: 12mph 33mph - -
WindNNW - - NNW
Pressure: 30 in 30 in 30 in -
Precipitation: 0 in      
 
 
Tabular Data for September 27, 2020
Time Temperature Dew Point Pressure Wind Wind Speed Wind Gust Humidity Rainfall Rate (Hourly) solar
00:04 50.2 °F 45.5 °F 30 in NNW 14.9 mph 21 mph 84% 0 in 0 W/m2
00:09 50.2 °F 45.5 °F 30 in NNW 14 mph 22 mph 84% 0 in 0 W/m2
00:14 50.2 °F 45.3 °F 30 in NNW 14.5 mph 21 mph 83.5% 0 in 0 W/m2
00:19 50.4 °F 45.3 °F 30 in NNW 16 mph 24 mph 82.8% 0 in 0 W/m2
00:24 50.4 °F 45.1 °F 30 in NNW 17.9 mph 24 mph 82% 0 in 0 W/m2
00:29 50.4 °F 45.1 °F 30 in NNW 15.5 mph 23 mph 82% 0 in 0 W/m2
00:34 50.4 °F 45 °F 30 in North 15.7 mph 23 mph 81.6% 0 in 0 W/m2
00:39 50.4 °F 44.8 °F 30 in NNW 16.7 mph 27 mph 81% 0 in 0 W/m2
00:44 50.5 °F 45 °F 30 in NNW 19.3 mph 27 mph 81% 0 in 0 W/m2
00:49 50.5 °F 45 °F 30 in NNW 19.1 mph 25 mph 81.3% 0 in 0 W/m2
00:54 50.4 °F 45.1 °F 30 in NNW 18 mph 28 mph 82% 0 in 0 W/m2
00:59 50.4 °F 45.1 °F 30 in NNW 16.8 mph 23 mph 82% 0 in 0 W/m2
01:04 50.2 °F 45 °F 30 in NNW 16.5 mph 24 mph 82% 0 in 0 W/m2
01:09 50.2 °F 45.1 °F 30 in NNW 18.5 mph 25 mph 83% 0 in 0 W/m2
01:14 50.2 °F 45.1 °F 30 in NNW 16 mph 22 mph 83% 0 in 0 W/m2
01:19 50.2 °F 45.1 °F 30 in NNW 17.3 mph 24 mph 83% 0 in 0 W/m2
01:24 50.2 °F 45.1 °F 30 in NNW 18 mph 25 mph 83% 0 in 0 W/m2
01:29 50.2 °F 45.1 °F 30 in NNW 16.6 mph 28 mph 83% 0 in 0 W/m2
01:34 50.2 °F 45 °F 30 in NNW 20.1 mph 28 mph 82.1% 0 in 0 W/m2
01:39 50.2 °F 45 °F 30 in NNW 18.8 mph 25 mph 82% 0 in 0 W/m2
01:44 50.2 °F 45 °F 30 in NNW 17.5 mph 24 mph 82% 0 in 0 W/m2
01:49 50.2 °F 45 °F 30 in NNW 17.1 mph 28 mph 82% 0 in 0 W/m2
01:54 50.2 °F 45 °F 30 in NNW 18.7 mph 28 mph 82% 0 in 0 W/m2
01:59 50.2 °F 45 °F 30 in North 17.5 mph 23 mph 82% 0 in 0 W/m2
02:04 50.2 °F 45 °F 30 in NNW 15.6 mph 22 mph 82% 0 in 0 W/m2
02:09 50 °F 44.8 °F 30 in NNW 16.2 mph 22 mph 81.8% 0 in 0 W/m2
02:14 50 °F 44.4 °F 30 in NNW 17.6 mph 25 mph 81.3% 0 in 0 W/m2
02:19 50.2 °F 44.6 °F 30 in NNW 20.9 mph 27 mph 81% 0 in 0 W/m2
02:24 50.2 °F 44.6 °F 30 in NNW 23 mph 31 mph 81% 0 in 0 W/m2
02:29 50.2 °F 44.6 °F 30 in North 22 mph 30 mph 81% 0 in 0 W/m2
02:34 50.2 °F 44.8 °F 30 in North 22.5 mph 30 mph 81.5% 0 in 0 W/m2
02:39 50.2 °F 44.8 °F 30 in North 21.6 mph 29 mph 81.4% 0 in 0 W/m2
02:44 50.2 °F 44.8 °F 30 in North 17.6 mph 25 mph 81.5% 0 in 0 W/m2
02:49 50 °F 44.8 °F 30 in NNW 14.5 mph 21 mph 82% 0 in 0 W/m2
02:54 49.8 °F 44.4 °F 30 in NNW 15.2 mph 21 mph 82% 0 in 0 W/m2
02:59 49.8 °F 44.8 °F 30 in NNW 16.6 mph 24 mph 82.9% 0 in 0 W/m2
03:04 49.8 °F 45 °F 30 in NNW 21.1 mph 32 mph 83% 0 in 0 W/m2
03:09 49.6 °F 45.1 °F 30 in NNW 19.5 mph 28 mph 84% 0 in 0 W/m2
03:14 49.6 °F 45 °F 30 in NNW 22 mph 28 mph 84% 0 in 0 W/m2
03:19 49.6 °F 45 °F 30 in NNW 21.1 mph 28 mph 84% 0 in 0 W/m2
03:24 49.6 °F 45 °F 30 in North 19.8 mph 27 mph 84% 0 in 0 W/m2
03:29 49.6 °F 44.8 °F 30 in North 20.3 mph 28 mph 83% 0 in 0 W/m2
03:34 49.8 °F 44.6 °F 30 in North 20.2 mph 28 mph 82.6% 0 in 0 W/m2
03:39 49.8 °F 44.4 °F 30 in North 17.8 mph 27 mph 82% 0 in 0 W/m2
03:44 49.8 °F 44.4 °F 30 in North 16.7 mph 25 mph 82% 0 in 0 W/m2
03:49 49.8 °F 44.6 °F 30 in North 19.9 mph 27 mph 82.2% 0 in 0 W/m2
03:54 49.8 °F 44.4 °F 30 in North 20.8 mph 32 mph 82% 0 in 0 W/m2
03:59 49.8 °F 44.6 °F 30 in NNW 20 mph 32 mph 82.2% 0 in 0 W/m2
04:04 50 °F 44.6 °F 30 in NNW 19.8 mph 31 mph 82% 0 in 0 W/m2
04:09 49.8 °F 44.8 °F 30 in NNW 19 mph 33 mph 82.6% 0 in 0 W/m2
04:14 49.8 °F 45 °F 30 in North 22.2 mph 33 mph 83% 0 in 0 W/m2
04:19 49.8 °F 45 °F 30 in North 17.4 mph 27 mph 83.5% 0 in 0 W/m2
04:24 49.6 °F 45 °F 30 in North 18.6 mph 25 mph 84% 0 in 0 W/m2
04:29 49.8 °F 45 °F 30 in NNW 16.9 mph 25 mph 83.3% 0 in 0 W/m2
04:34 49.8 °F 45 °F 30 in NNW 16.2 mph 27 mph 83.2% 0 in 0 W/m2
04:39 49.8 °F 45 °F 30 in NNW 17 mph 25 mph 83% 0 in 0 W/m2
04:44 49.8 °F 45 °F 30 in NNW 16.7 mph 25 mph 83% 0 in 0 W/m2
04:49 49.8 °F 45 °F 30 in NNW 20.4 mph 29 mph 83% 0 in 0 W/m2
04:54 49.8 °F 44.8 °F 30 in NNW 20.1 mph 31 mph 82.5% 0 in 0 W/m2
04:59 50 °F 44.8 °F 30 in NNW 22.9 mph 29 mph 82% 0 in 0 W/m2
05:04 50.2 °F 44.6 °F 30 in North 20.4 mph 30 mph 81.1% 0 in 0 W/m2
05:09 50.2 °F 44.6 °F 30 in NNW 17.1 mph 26 mph 81.2% 0 in 0 W/m2
05:14 50 °F 44.4 °F 30 in NNW 17.9 mph 28 mph 81% 0 in 0 W/m2
05:19 50 °F 44.4 °F 30 in NNW 16.2 mph 24 mph 81% 0 in 0 W/m2
05:24 49.8 °F 44.2 °F 30 in North 17.7 mph 27 mph 81% 0 in 0 W/m2
05:29 49.8 °F 44.4 °F 30 in NNW 15.5 mph 25 mph 81.4% 0 in 0 W/m2
05:34 49.6 °F 44.6 °F 30 in NNW 14.6 mph 22 mph 82.6% 0 in 0 W/m2
05:39 49.6 °F 44.8 °F 30 in NNW 16.8 mph 26 mph 83% 0 in 0 W/m2
05:44 49.6 °F 44.8 °F 30 in North 20.8 mph 30 mph 82.8% 0 in 0 W/m2
05:49 49.8 °F 44.4 °F 30 in North 20.5 mph 30 mph 82% 0 in 0 W/m2
05:54 49.8 °F 44.4 °F 30 in NNW 16.5 mph 25 mph 82% 0 in 0 W/m2
05:59 49.8 °F 44.4 °F 30 in NNW 15.4 mph 22 mph 82% 0 in 0 W/m2
06:04 49.8 °F 44.4 °F 30 in NNW 17.3 mph 22 mph 82% 0 in 0 W/m2
06:09 49.6 °F 44.8 °F 30 in NNW 15.1 mph 22 mph 82.8% 0 in 0 W/m2
06:14 49.6 °F 45 °F 30 in NNW 15 mph 21 mph 83.7% 0 in 0 W/m2
06:19 49.5 °F 44.8 °F 30 in NNW 15 mph 22 mph 84.1% 0 in 0 W/m2
06:24 49.3 °F 45 °F 30 in NNW 16.9 mph 22 mph 85% 0 in 0 W/m2
06:29 49.3 °F 45 °F 30 in NNW 16.7 mph 23 mph 85% 0 in 0 W/m2
06:34 49.5 °F 45.1 °F 30 in NNW 15 mph 26 mph 85% 0 in 0 W/m2
06:39 49.5 °F 45 °F 30 in NNW 18.4 mph 26 mph 84.5% 0 in 0 W/m2
06:44 49.5 °F 44.8 °F 30 in NNW 17.3 mph 25 mph 84% 0 in 0 W/m2
06:49 49.6 °F 45 °F 30 in NNW 19.1 mph 26 mph 84% 0 in 0 W/m2
06:54 49.6 °F 44.8 °F 30 in NNW 18.5 mph 26 mph 83.2% 0 in 0 W/m2
06:59 49.6 °F 44.8 °F 30 in NNW 17.5 mph 26 mph 83% 0 in 0 W/m2
07:04 49.6 °F 44.8 °F 30 in NNW 16.7 mph 24 mph 83% 0 in 0 W/m2
07:09 49.6 °F 44.8 °F 30 in NNW 19.4 mph 29 mph 83% 0 in 5 W/m2
07:14 49.6 °F 45 °F 30 in NNW 20 mph 29 mph 83.5% 0 in 5 W/m2
07:19 49.6 °F 45 °F 30 in NNW 18.9 mph 25 mph 84% 0 in 9 W/m2
07:24 49.6 °F 45 °F 30 in NNW 18.1 mph 24 mph 84% 0 in 18 W/m2
07:29 49.6 °F 45 °F 30 in NNW 18.3 mph 25 mph 83.5% 0 in 23 W/m2
07:34 49.8 °F 45 °F 30 in NNW 15.9 mph 22 mph 83.5% 0 in 23 W/m2
07:39 49.8 °F 45.1 °F 30 in NNW 17 mph 23 mph 84% 0 in 25 W/m2
07:44 49.6 °F 45.1 °F 30 in NNW 14.4 mph 23 mph 84% 0 in 28 W/m2
07:49 49.6 °F 45 °F 30 in NNW 16.2 mph 22 mph 84% 0 in 37 W/m2
07:54 49.6 °F 45.1 °F 30 in NNW 15 mph 22 mph 84.5% 0 in 37 W/m2
07:59 49.6 °F 45.3 °F 30 in NNW 14.5 mph 20 mph 85% 0 in 39 W/m2
08:04 49.8 °F 45.5 °F 30 in NNW 16 mph 23 mph 85% 0 in 40 W/m2
08:09 49.8 °F 45.5 °F 30 in NNW 14.9 mph 23 mph 85% 0 in 42 W/m2
08:14 49.8 °F 45.5 °F 30 in NNW 14.2 mph 20 mph 85% 0 in 47 W/m2
08:19 49.8 °F 45.5 °F 30 in NNW 14.7 mph 20 mph 85% 0 in 51 W/m2
08:24 49.8 °F 45.5 °F 30 in NNW 13.9 mph 19 mph 85% 0 in 54 W/m2
08:29 49.8 °F 45.5 °F 30 in NNW 14.4 mph 21 mph 85% 0 in 51 W/m2
08:34 49.8 °F 45.5 °F 30 in NNW 15.2 mph 21 mph 85% 0 in 62 W/m2
08:39 49.8 °F 45.5 °F 30 in NNW 16.1 mph 21 mph 85% 0 in 74 W/m2
08:44 49.8 °F 45.7 °F 30 in NNW 15.7 mph 23 mph 85.4% 0 in 86 W/m2
08:49 50 °F 45.9 °F 30 in NNW 14.4 mph 22 mph 85.8% 0 in 88 W/m2
08:54 50 °F 46 °F 30 in NNW 15.8 mph 22 mph 85.9% 0 in 83 W/m2
08:59 50.2 °F 46 °F 30 in NNW 16.5 mph 24 mph 85.8% 0 in 100 W/m2
09:04 50.2 °F 46.2 °F 30 in NNW 16.3 mph 21 mph 85.8% 0 in 118 W/m2
09:09 50.4 °F 46.2 °F 30 in NNW 15.7 mph 27 mph 85.4% 0 in 135 W/m2
09:14 50.4 °F 46 °F 30 in NNW 18.3 mph 27 mph 85% 0 in 118 W/m2
09:19 50.5 °F 46.2 °F 30 in NNW 18.1 mph 25 mph 85% 0 in 199 W/m2
09:24 50.5 °F 46.2 °F 30 in NNW 16 mph 23 mph 85% 0 in 199 W/m2
09:29 50.7 °F 46.4 °F 30 in NNW 17.6 mph 25 mph 85% 0 in 192 W/m2
09:34 50.7 °F 46.6 °F 30 in NNW 18.9 mph 25 mph 85.4% 0 in 151 W/m2
09:39 50.5 °F 46.4 °F 30 in NNW 19.8 mph 27 mph 85.3% 0 in 195 W/m2
09:44 50.7 °F 46.6 °F 30 in NNW 18.3 mph 27 mph 85.6% 0 in 346 W/m2
09:49 51.1 °F 46.9 °F 30 in NNW 17.8 mph 27 mph 85.7% 0 in 330 W/m2
09:54 51.3 °F 46.9 °F 30 in NNW 20 mph 27 mph 85% 0 in 209 W/m2
09:59 51.3 °F 46.9 °F 30 in NNW 18.5 mph 26 mph 85% 0 in 251 W/m2
10:04 51.3 °F 46.8 °F 30 in NNW 18.3 mph 23 mph 85% 0 in 239 W/m2
10:09 51.3 °F 46.9 °F 30 in NNW 18.3 mph 23 mph 85.2% 0 in 295 W/m2
10:14 51.4 °F 47.1 °F 30 in North 17.3 mph 24 mph 84.9% 0 in 443 W/m2
10:19 52 °F 47.1 °F 30 in North 19.8 mph 25 mph 83.8% 0 in 427 W/m2
10:24 52.3 °F 47.7 °F 30 in North 16.8 mph 24 mph 83.8% 0 in 473 W/m2
10:29 52.5 °F 47.5 °F 30 in North 18.1 mph 26 mph 82.6% 0 in 281 W/m2
10:34 52.5 °F 47.5 °F 30 in North 18.9 mph 28 mph 82.7% 0 in 332 W/m2
10:39 52.9 °F 47.5 °F 30 in North 21.1 mph 27 mph 82.1% 0 in 332 W/m2
10:44 52.9 °F 47.5 °F 30 in North 19.7 mph 26 mph 82% 0 in 392 W/m2
10:49 52.9 °F 47.5 °F 30 in North 20.1 mph 26 mph 82% 0 in 387 W/m2
10:54 52.9 °F 47.5 °F 30 in North 19.6 mph 26 mph 81.8% 0 in 316 W/m2
10:59 53.1 °F 47.5 °F 30 in North 18.3 mph 26 mph 81.6% 0 in 338 W/m2
11:04 52.9 °F 47.3 °F 30 in North 18.5 mph 26 mph 81.4% 0 in 311 W/m2
11:09 53.1 °F 47.7 °F 30 in North 16.8 mph 24 mph 82.1% 0 in 260 W/m2
11:14 53.2 °F 47.8 °F 30 in North 17.2 mph 26 mph 82.2% 0 in 285 W/m2
11:19 53.2 °F 47.8 °F 30 in North 19.8 mph 26 mph 81.8% 0 in 350 W/m2
11:24 53.2 °F 47.7 °F 30 in North 19.9 mph 28 mph 81.2% 0 in 313 W/m2
11:29 53.4 °F 48 °F 30 in North 17 mph 22 mph 81.9% 0 in 294 W/m2
11:34 53.8 °F 48.2 °F 30 in North 19.3 mph 28 mph 81.2% 0 in 394 W/m2
11:39 53.8 °F 48 °F 30 in North 19.4 mph 28 mph 81% 0 in 362 W/m2
11:44 54 °F 48.2 °F 30 in North 18.9 mph 26 mph 80.8% 0 in 436 W/m2
11:49 54 °F 48.2 °F 30 in North 18.2 mph 25 mph 80.7% 0 in 330 W/m2
11:54 54.1 °F 48.2 °F 30 in North 19.1 mph 28 mph 79.9% 0 in 304 W/m2
11:59 54.1 °F 48.2 °F 30 in North 18.3 mph 28 mph 79.8% 0 in 606 W/m2
12:04 54.1 °F 47.8 °F 30 in North 16.9 mph 24 mph 79.1% 0 in 330 W/m2
12:09 54.1 °F 47.8 °F 30 in NNW 19 mph 28 mph 79.2% 0 in 327 W/m2
12:14 54 °F 47.8 °F 30 in NNW 18.3 mph 28 mph 79.8% 0 in 264 W/m2
12:19 53.8 °F 47.8 °F 30 in North 18.2 mph 24 mph 80.2% 0 in 299 W/m2
12:24 53.8 °F 47.8 °F 30 in North 17.9 mph 24 mph 80.2% 0 in 292 W/m2
12:29 54 °F 48 °F 30 in North 15 mph 21 mph 80.2% 0 in 297 W/m2
12:34 54.1 °F 48 °F 30 in North 15.5 mph 21 mph 80.2% 0 in 239 W/m2
12:39 54 °F 48 °F 30 in North 16.7 mph 21 mph 80.5% 0 in 218 W/m2
12:44 54 °F 48.4 °F 30 in North 13.6 mph 21 mph 81.3% 0 in 213 W/m2
12:49 54 °F 48.6 °F 30 in North 14.4 mph 20 mph 81.4% 0 in 330 W/m2
12:54 54.1 °F 48.6 °F 30 in North 14.5 mph 20 mph 81.5% 0 in 438 W/m2
12:59 54.1 °F 48.4 °F 30 in North 15.6 mph 20 mph 80.7% 0 in 299 W/m2
13:04 54.1 °F 48.2 °F 30 in NNW 15.2 mph 22 mph 80.5% 0 in 446 W/m2
13:09 54.3 °F 48.6 °F 30 in NNW 14.4 mph 22 mph 81.2% 0 in 380 W/m2
13:14 54.3 °F 48.4 °F 30 in NNW 15.6 mph 23 mph 80.4% 0 in 243 W/m2
13:19 54.3 °F 48.4 °F 30 in NNW 16.7 mph 23 mph 80% 0 in 267 W/m2
13:24 54.3 °F 48.2 °F 30 in NNW 14.7 mph 22 mph 80.1% 0 in 269 W/m2
13:29 54.3 °F 48.6 °F 30 in NNW 14.5 mph 21 mph 80.6% 0 in 272 W/m2
13:34 54.3 °F 48.4 °F 30 in NNW 15.8 mph 21 mph 80.4% 0 in 272 W/m2
13:39 54.1 °F 48.4 °F 30 in NW 15 mph 20 mph 80.6% 0 in 244 W/m2
13:44 54 °F 48.6 °F 30 in NNW 15.8 mph 21 mph 81.6% 0 in 234 W/m2
13:49 54 °F 48.4 °F 30 in NNW 13.5 mph 19 mph 81.5% 0 in 225 W/m2
13:54 54 °F 48.6 °F 30 in NNW 12.2 mph 19 mph 82% 0 in 230 W/m2
13:59 54 °F 48.6 °F 30 in NNW 12.7 mph 16 mph 82% 0 in 211 W/m2
14:04 54.1 °F 48.6 °F 30 in NNW 12.6 mph 16 mph 81.6% 0 in 193 W/m2
14:09 54 °F 48.4 °F 30 in NW 12.2 mph 16 mph 81.2% 0 in 185 W/m2
14:14 54 °F 48.2 °F 30 in NW 15.5 mph 21 mph 81% 0 in 188 W/m2
14:19 53.8 °F 48.2 °F 30 in NW 14.7 mph 21 mph 81.6% 0 in 193 W/m2
14:24 53.8 °F 48.6 °F 30 in NW 14.7 mph 19 mph 82.4% 0 in 206 W/m2
14:28 53.8 °F 48.4 °F 30 in NW 14.6 mph 19 mph 82% 0 in 178 W/m2
14:34 53.8 °F 48.4 °F 30 in NNW 15.3 mph 21 mph 82% 0 in 130 W/m2
14:39 53.8 °F 48.4 °F 30 in NNW 16 mph 21 mph 82% 0 in 125 W/m2
14:42 53.4 °F 48.2 °F 30 in NNW 16.5 mph 21 mph 82% 0 in 113 W/m2
14:49 53.2 °F 48 °F 30 in NNW 15.2 mph 22 mph 82.2% 0 in 169 W/m2
14:54 53.4 °F 48 °F 30 in NNW 12.6 mph 18 mph 82% 0 in 169 W/m2
14:57 53.4 °F 48 °F 30 in NNW 13.5 mph 16 mph 81.7% 0 in 158 W/m2
15:04 53.4 °F 48.2 °F 30 in NNW 13.4 mph 19 mph 82% 0 in 135 W/m2
15:09 53.4 °F 48 °F 30 in NNW 13.4 mph 19 mph 82% 0 in 146 W/m2
15:14 53.6 °F 48.4 °F 30 in NNW 12.1 mph 19 mph 82.4% 0 in 172 W/m2
15:19 53.6 °F 48.2 °F 30 in NNW 14 mph 19 mph 82% 0 in 172 W/m2
15:24 53.6 °F 48 °F 30 in NNW 12.7 mph 18 mph 81.5% 0 in 171 W/m2
15:29 53.8 °F 48.2 °F 30 in NNW 13.9 mph 18 mph 81.2% 0 in 148 W/m2
15:34 53.6 °F 47.8 °F 30 in NNW 13.4 mph 18 mph 81% 0 in 114 W/m2
15:39 53.6 °F 47.8 °F 30 in NNW 11.6 mph 20 mph 81% 0 in 114 W/m2
15:44 53.4 °F 47.7 °F 30 in NNW 13.4 mph 20 mph 81% 0 in 118 W/m2
15:49 53.4 °F 47.7 °F 30 in NNW 13.2 mph 16 mph 81% 0 in 114 W/m2
15:54 53.4 °F 47.8 °F 30 in NNW 12.5 mph 16 mph 81.5% 0 in 113 W/m2
15:59 53.4 °F 48 °F 30 in NNW 12.4 mph 16 mph 82% 0 in 120 W/m2
16:04 53.4 °F 48.2 °F 30 in NNW 10.9 mph 15 mph 82.3% 0 in 148 W/m2
16:09 53.4 °F 48 °F 30 in NW 11.9 mph 15 mph 81.8% 0 in 153 W/m2
16:14 53.6 °F 48 °F 30 in NW 11 mph 16 mph 81.7% 0 in 107 W/m2
16:19 53.6 °F 48 °F 30 in NNW 13.1 mph 19 mph 81.2% 0 in 98 W/m2
16:24 53.4 °F 47.8 °F 30 in NNW 11.6 mph 18 mph 81% 0 in 77 W/m2
16:29 53.4 °F 48 °F 30 in NNW 12.8 mph 16 mph 81.7% 0 in 67 W/m2
16:34 53.4 °F 48 °F 30 in NNW 11.5 mph 16 mph 82% 0 in 63 W/m2
16:39 53.2 °F 47.8 °F 30 in NNW 11.7 mph 16 mph 82% 0 in 58 W/m2
16:44 53.1 °F 47.8 °F 30 in NNW 12 mph 16 mph 82% 0 in 53 W/m2
16:49 53.1 °F 47.7 °F 30 in NNW 11.6 mph 18 mph 82% 0 in 49 W/m2
16:54 53.1 °F 47.8 °F 30 in NNW 12 mph 18 mph 82.3% 0 in 44 W/m2
16:59 52.9 °F 47.8 °F 30 in NNW 12.6 mph 16 mph 82.7% 0 in 46 W/m2
17:04 52.9 °F 47.8 °F 30 in NNW 11.5 mph 16 mph 83% 0 in 42 W/m2
17:09 52.9 °F 47.8 °F 30 in NNW 10.7 mph 18 mph 83% 0 in 46 W/m2
17:14 52.7 °F 47.8 °F 30 in NNW 11.9 mph 18 mph 83% 0 in 46 W/m2
17:19 52.7 °F 47.7 °F 30 in NNW 11.8 mph 18 mph 83% 0 in 40 W/m2
17:24 52.5 °F 47.7 °F 30 in NNW 12.1 mph 18 mph 83.2% 0 in 30 W/m2
17:29 52.5 °F 47.8 °F 30 in NNW 10.8 mph 14 mph 84% 0 in 33 W/m2
17:34 52.5 °F 47.8 °F 30 in NNW 10.9 mph 15 mph 84% 0 in 37 W/m2
17:39 52.3 °F 47.7 °F 30 in NNW 10.8 mph 14 mph 84% 0 in 37 W/m2
17:44 52.3 °F 47.7 °F 30 in NNW 12.4 mph 18 mph 84% 0 in 30 W/m2
17:49 52.3 °F 47.7 °F 30 in NNW 13.2 mph 18 mph 84% 0 in 26 W/m2
17:54 52.3 °F 47.7 °F 30 in NNW 12.5 mph 18 mph 84% 0 in 25 W/m2
17:59 52.3 °F 47.7 °F 30 in NNW 13.4 mph 18 mph 84% 0 in 19 W/m2
18:04 52.2 °F 47.5 °F 30 in NNW 11.9 mph 18 mph 84% 0 in 19 W/m2
18:09 52.2 °F 47.5 °F 30 in NNW 11.7 mph 15 mph 84% 0 in 21 W/m2
18:14 52.2 °F 47.7 °F 30 in NNW 10.3 mph 15 mph 84.5% 0 in 21 W/m2
18:19 52 °F 47.7 °F 30 in NNW 10.4 mph 14 mph 85% 0 in 14 W/m2
18:24 52 °F 47.7 °F 30 in NNW 8.6 mph 13 mph 85% 0 in 9 W/m2
18:29 51.8 °F 47.5 °F 30 in NNW 10.5 mph 18 mph 85% 0 in 7 W/m2
18:34 51.6 °F 47.3 °F 30 in NNW 10.3 mph 14 mph 85% 0 in 5 W/m2
18:39 51.6 °F 47.3 °F 30 in NNW 10.3 mph 14 mph 85% 0 in 0 W/m2
18:44 51.6 °F 47.3 °F 30 in NNW 9.8 mph 14 mph 85.2% 0 in 0 W/m2
18:49 51.4 °F 47.5 °F 30 in NNW 10.2 mph 14 mph 86% 0 in 0 W/m2
18:54 51.4 °F 47.3 °F 30 in NNW 10.3 mph 14 mph 85.7% 0 in 0 W/m2
18:59 51.4 °F 47.1 °F 30 in NNW 9.9 mph 14 mph 85% 0 in 0 W/m2
19:04 51.4 °F 47.3 °F 30 in NNW 8.1 mph 13 mph 85.5% 0 in 0 W/m2
19:09 51.4 °F 47.3 °F 30 in NNW 6.8 mph 10 mph 86% 0 in 0 W/m2
19:14 51.3 °F 47.3 °F 30 in NNW 6.4 mph 10 mph 86.4% 0 in 0 W/m2
19:19 51.3 °F 47.5 °F 30 in NNW 7.5 mph 10 mph 87% 0 in 0 W/m2
19:24 51.1 °F 47.3 °F 30 in NNW 8 mph 12 mph 87% 0 in 0 W/m2
19:29 51.1 °F 47.3 °F 30 in NNW 9 mph 12 mph 87% 0 in 0 W/m2
19:34 51.1 °F 47.3 °F 30 in NNW 9 mph 12 mph 87% 0 in 0 W/m2
19:39 51.1 °F 47.3 °F 30 in NNW 8.9 mph 12 mph 87% 0 in 0 W/m2
North Lincolnshire Weather
Compliments of Weather Underground - 2 mb

Data updates at regular intervals.